Latest Weather Observations for Winton

IDQ60801

Issued at 10:02 pm EST Saturday 28 March 2015 (issued every 30 minutes, with the page automatically refreshed every 10 minutes)

About weather observations | Map of weather stations | Latest weather observations for QLD | Other Formats
Station Details ID: 037039 Name: WINTON AIRPORT Lat: -22.36 Lon: 143.08 Height: 192.2 m
Data from the previous 72 hours. | See also: Recent months at Winton
Date/Time
EST
Temp
°C
App
Temp
°C
Dew
Point
Rel
Hum
%
Delta-T
°C
Wind Press
QNH
hPa
Press
MSL
hPa
Rain
since 9 am
mm
Dir
 
Spd
km/h
Gust
km/h
Spd
kts
Gust
kts
28/10:00pm 29.4 31.0 20.0 57 6.2 NE 11 13 6 7 1015.3 1014.1 0.0
28/09:30pm 29.1 31.3 20.3 59 5.8 NE 9 11 5 6 1015.3 1014.1 0.0
28/09:00pm 29.2 30.5 20.1 58 6.0 NE 13 15 7 8 1015.2 1014.0 0.0
28/08:30pm 29.7 29.3 19.4 54 6.8 NE 20 24 11 13 1015.0 1013.8 0.0
28/08:00pm 30.4 30.7 20.3 54 6.7 NNE 19 26 10 14 1014.4 1013.2 0.0
28/07:56pm 29.6 29.5 19.9 56 6.4 NNE 20 28 11 15 1014.4 1013.2 0.0
28/07:30pm 31.0 24.3 16.2 41 9.3 NE 46 61 25 33 1014.2 1013.0 0.0
28/07:12pm 30.5 28.7 16.9 44 8.6 ENE 22 48 12 26 1014.1 1012.9 0.0
28/07:00pm 32.6 30.9 17.2 39 9.9 S 22 33 12 18 1013.8 1012.6 0.0
28/06:30pm 32.9 29.7 16.3 37 10.5 SE 28 35 15 19 1013.3 1012.0 0.0
28/06:00pm 36.2 36.0 14.8 28 13.4 N 9 17 5 9 1012.8 1011.5 0.0
28/05:30pm 36.5 35.5 14.5 27 13.8 NNE 13 20 7 11 1012.5 1011.2 0.0
28/05:00pm 36.8 35.6 14.1 25 14.1 N 13 24 7 13 1012.2 1010.9 0.0
28/04:30pm 37.4 36.2 14.0 24 14.6 N 13 20 7 11 1012.2 1010.9 0.0
28/04:00pm 37.3 36.3 14.6 26 14.3 N 13 26 7 14 1012.4 1011.1 0.0
28/03:30pm 38.0 36.9 15.2 26 14.5 NNW 15 20 8 11 1012.6 1011.3 0.0
28/03:00pm 37.0 37.3 14.9 27 13.9 NNE 7 15 4 8 1013.0 1011.7 0.0
28/02:30pm 37.2 36.2 15.6 27 13.8 NNW 15 28 8 15 1013.4 1012.1 0.0
28/02:00pm 36.2 37.0 16.4 31 12.7 NW 7 17 4 9 1013.7 1012.5 0.0
28/01:30pm 35.8 34.8 15.5 29 12.9 NNW 15 24 8 13 1014.1 1012.9 0.0
28/01:00pm 35.2 35.1 16.0 31 12.2 NW 11 26 6 14 1014.5 1013.3 0.0
28/12:30pm 36.0 35.0 16.7 31 12.4 NNW 17 28 9 15 1015.1 1013.9 0.0
28/12:00pm 35.1 33.5 16.4 32 12.0 NW 20 32 11 17 1015.6 1014.4 0.0
28/11:30am 35.0 33.1 16.8 34 11.7 NNW 22 43 12 23 1016.2 1014.9 0.0
28/11:00am 34.2 32.8 17.0 36 11.1 NNW 20 32 11 17 1016.5 1015.2 0.0
28/10:30am 33.4 32.8 17.5 38 10.3 N 17 28 9 15 1017.0 1015.7 0.0
28/10:00am 31.3 30.0 17.2 42 9.0 N 20 30 11 16 1017.2 1015.9 0.0
28/09:30am 30.6 28.7 16.6 43 8.9 N 22 33 12 18 1017.3 1016.0 0.0
28/09:00am 29.3 26.3 14.7 41 8.9 NNE 24 32 13 17 1017.2 1015.9 0.0
28/08:30am 28.0 22.9 12.0 37 9.3 NE 30 35 16 19 1017.1 1015.8 0.0
28/08:00am 27.6 22.7 9.9 33 9.9 NE 26 37 14 20 1016.7 1015.4 0.0
28/07:30am 26.3 21.6 9.2 34 9.4 NE 24 33 13 18 1016.3 1015.0 0.0
28/07:00am 25.7 21.8 9.5 36 9.0 NE 20 26 11 14 1016.1 1014.8 0.0
28/06:30am 25.8 21.8 10.4 38 8.7 NE 22 28 12 15 1015.6 1014.4 0.0
28/06:00am 26.2 22.6 13.0 44 7.8 NE 24 32 13 17 1015.2 1014.0 0.0
28/05:30am 26.4 23.7 14.5 48 7.2 NE 22 28 12 15 1015.0 1013.8 0.0
28/05:00am 26.9 24.5 14.3 46 7.6 NE 20 28 11 15 1014.8 1013.6 0.0
28/04:30am 27.1 26.2 15.8 50 7.0 ENE 15 20 8 11 1014.7 1013.5 0.0
28/04:00am 27.1 25.1 11.6 38 8.9 ENE 13 17 7 9 1014.7 1013.5 0.0
28/03:30am 27.6 25.4 10.8 35 9.6 ENE 13 17 7 9 1014.9 1013.7 0.0
28/03:00am 28.0 26.7 12.4 38 9.2 ENE 11 15 6 8 1014.9 1013.7 0.0
28/02:30am 27.8 27.8 14.1 43 8.3 ESE 7 9 4 5 1014.9 1013.7 0.0
28/02:00am 28.0 28.5 15.6 46 7.7 ESE 7 11 4 6 1015.0 1013.8 0.0
28/01:30am 28.5 28.6 16.4 48 7.6 E 11 15 6 8 1015.1 1013.9 0.0
28/01:00am 29.1 28.5 16.6 46 7.9 ENE 15 20 8 11 1015.3 1014.1 0.0
28/12:30am 29.0 28.9 16.9 48 7.6 E 13 19 7 10 1015.6 1014.4 0.0
28/12:00am 29.3 29.3 17.2 48 7.7 ENE 13 17 7 9 1015.7 1014.5 0.0
 
Date/Time
EST
Temp
°C
App
Temp
°C
Dew
Point
Rel
Hum
%
Delta-T
°C
Wind Press
QNH
hPa
Press
MSL
hPa
Rain
since 9 am
mm
Dir
 
Spd
km/h
Gust
km/h
Spd
kts
Gust
kts
27/11:30pm 29.9 29.6 17.4 47 8.0 ENE 15 19 8 10 1015.7 1014.5 0.0
27/11:00pm 30.4 29.9 16.8 44 8.6 NE 15 19 8 10 1016.0 1014.7 0.0
27/10:30pm 30.9 30.1 16.1 41 9.3 NE 15 20 8 11 1016.1 1014.8 0.0
27/10:00pm 31.4 31.1 15.4 38 10.0 ENE 11 17 6 9 1016.1 1014.8 0.0
27/09:30pm 31.2 31.3 15.6 39 9.7 ESE 9 11 5 6 1016.0 1014.7 0.0
27/09:00pm 31.6 31.7 15.5 37 10.0 ESE 9 15 5 8 1015.5 1014.3 0.0
27/08:30pm 31.8 32.0 15.7 37 10.1 ENE 9 13 5 7 1015.1 1013.9 0.0
27/08:00pm 32.4 31.7 16.3 38 10.2 NE 15 20 8 11 1014.7 1013.5 0.0
27/07:30pm 32.9 30.5 16.3 37 10.5 NE 24 32 13 17 1014.4 1013.2 0.0
27/07:00pm 34.0 31.3 15.5 33 11.6 ENE 24 41 13 22 1014.0 1012.8 0.0
27/06:30pm 35.5 33.1 12.5 25 13.9 E 17 24 9 13 1013.5 1012.2 0.0
27/06:00pm 36.0 34.3 12.3 24 14.4 ESE 13 22 7 12 1013.1 1011.8 0.0
27/05:30pm 36.4 34.4 12.6 24 14.5 E 15 24 8 13 1012.9 1011.6 0.0
27/05:00pm 36.7 36.4 12.8 24 14.6 ESE 6 13 3 7 1012.8 1011.5 0.0
27/04:30pm 36.9 35.4 13.0 24 14.7 ENE 13 20 7 11 1012.9 1011.6 0.0
27/04:00pm 36.9 35.0 13.0 24 14.7 SE 15 24 8 13 1012.9 1011.6 0.0
27/03:30pm 36.6 35.6 13.4 25 14.3 E 11 24 6 13 1013.1 1011.8 0.0
27/03:00pm 36.7 34.2 13.5 25 14.3 E 19 30 10 16 1013.4 1012.1 0.0
27/02:30pm 36.3 34.0 13.1 25 14.2 ESE 17 28 9 15 1013.7 1012.5 0.0
27/02:00pm 36.7 34.6 13.5 25 14.3 E 17 32 9 17 1014.2 1013.0 0.0
27/01:30pm 35.1 33.5 12.7 26 13.6 ENE 13 24 7 13 1014.6 1013.4 0.0
27/01:00pm 35.3 33.7 12.9 26 13.6 E 13 24 7 13 1015.0 1013.8 0.0
27/12:30pm 34.6 32.3 12.9 27 13.2 ENE 17 28 9 15 1016.0 1014.7 0.0
27/12:00pm 34.4 31.6 12.7 27 13.1 NE 19 35 10 19 1016.5 1015.2 0.0
27/11:30am 32.6 29.0 10.6 26 12.8 NE 20 30 11 16 1017.3 1016.0 0.0
27/11:00am 31.5 26.8 9.1 25 12.7 NE 24 37 13 20 1017.8 1016.5 0.0
27/10:30am 30.9 26.0 8.6 25 12.5 ENE 24 35 13 19 1018.0 1016.7 0.0
27/10:00am 29.7 23.7 7.0 24 12.3 NE 28 35 15 19 1018.2 1016.9 0.0
27/09:30am 28.7 22.1 4.2 21 12.6 ENE 28 37 15 20 1018.3 1017.0 0.0
27/09:00am 28.4 21.0 4.0 21 12.4 E 32 43 17 23 1018.3 1017.0 0.0
27/08:30am 28.0 21.3 3.7 21 12.3 ESE 28 41 15 22 1018.3 1017.0 0.0
27/08:00am 27.1 22.0 2.9 21 12.0 SE 19 28 10 15 1018.0 1016.7 0.0
27/07:30am 25.5 21.2 0.9 20 11.7 SE 13 20 7 11 1017.7 1016.4 0.0
27/07:00am 24.6 20.2 0.2 20 11.3 SE 13 17 7 9 1017.6 1016.3 0.0
27/06:30am 24.6 20.6 0.2 20 11.3 SE 11 15 6 8 1017.3 1016.0 0.0
27/06:00am 24.7 20.3 0.3 20 11.4 SE 13 17 7 9 1016.9 1015.6 0.0
27/05:30am 24.8 19.9 -0.4 19 11.6 SE 15 17 8 9 1016.7 1015.4 0.0
27/05:00am 24.9 20.4 -0.3 19 11.6 SSE 13 17 7 9 1016.6 1015.3 0.0
27/04:30am 25.2 20.6 -0.8 18 11.9 SSE 13 17 7 9 1016.4 1015.1 0.0
27/04:00am 25.4 20.8 -1.4 17 12.2 SSE 13 17 7 9 1016.4 1015.1 0.0
27/03:30am 25.9 21.3 -1.0 17 12.4 SSE 13 17 7 9 1016.5 1015.2 0.0
27/03:00am 26.4 21.8 -1.4 16 12.7 SSE 13 15 7 8 1016.6 1015.3 0.0
27/02:30am 27.2 22.9 -1.7 15 13.2 SSE 11 15 6 8 1016.7 1015.4 0.0
27/02:00am 27.4 23.1 -1.5 15 13.3 SSE 11 15 6 8 1016.9 1015.6 0.0
27/01:30am 26.9 22.3 -1.0 16 12.9 SSE 13 15 7 8 1017.1 1015.8 0.0
27/01:00am 26.5 21.9 -1.3 16 12.7 SSE 13 15 7 8 1017.0 1015.7 0.0
27/12:30am 27.1 22.8 -1.7 15 13.2 SSE 11 15 6 8 1017.3 1016.0 0.0
27/12:00am 27.9 23.3 -1.1 15 13.5 SSE 13 15 7 8 1017.6 1016.3 0.0
 
Date/Time
EST
Temp
°C
App
Temp
°C
Dew
Point
Rel
Hum
%
Delta-T
°C
Wind Press
QNH
hPa
Press
MSL
hPa
Rain
since 9 am
mm
Dir
 
Spd
km/h
Gust
km/h
Spd
kts
Gust
kts
26/11:30pm 28.9 23.9 -1.2 14 14.1 SSE 15 20 8 11 1017.7 1016.4 0.0
26/11:00pm 29.5 23.8 -0.8 14 14.3 SSE 19 24 10 13 1017.8 1016.5 0.0
26/10:30pm 29.7 23.8 -0.6 14 14.4 SSE 20 24 11 13 1017.7 1016.4 0.0
26/10:00pm 29.8 24.3 0.4 15 14.2 SSE 19 24 10 13 1017.6 1016.3 0.0
26/09:30pm 30.1 24.4 0.6 15 14.4 SSE 20 33 11 18 1017.4 1016.1 0.0
26/09:00pm 30.5 24.7 0.0 14 14.7 SSE 20 26 11 14 1017.3 1016.0 0.0
26/08:30pm 31.1 25.2 -0.5 13 15.2 SSE 20 28 11 15 1017.0 1015.7 0.0
26/08:00pm 31.6 24.7 -0.1 13 15.4 SSE 26 35 14 19 1016.6 1015.3 0.0
26/07:30pm 32.2 26.7 0.3 13 15.7 SSE 19 32 10 17 1016.2 1014.9 0.0
26/07:00pm 32.9 27.3 0.9 13 15.9 SSE 20 26 11 14 1015.6 1014.4 0.0
26/06:30pm 33.5 27.0 0.2 12 16.5 S 24 32 13 17 1015.1 1013.9 0.0
26/06:00pm 34.7 28.5 -0.1 11 17.3 SSE 22 32 12 17 1014.7 1013.5 0.0
26/05:30pm 35.9 29.9 0.9 11 17.8 SSE 22 30 12 16 1014.4 1013.2 0.0
26/05:00pm 36.5 30.9 1.3 11 18.1 SE 20 33 11 18 1014.2 1013.0 0.0
26/04:30pm 36.1 30.5 1.0 11 17.9 SSE 20 33 11 18 1014.1 1012.9 0.0
26/04:00pm 36.9 32.1 2.8 12 17.9 SE 17 26 9 14 1014.1 1012.9 0.0
26/03:30pm 36.7 31.9 2.7 12 17.9 SSE 17 28 9 15 1014.0 1012.8 0.0
26/03:00pm 36.5 31.3 2.5 12 17.8 SSE 19 32 10 17 1014.2 1013.0 0.0
26/02:30pm 37.2 32.5 3.1 12 18.1 SSE 17 26 9 14 1014.4 1013.2 0.0
26/02:00pm 35.9 31.4 2.1 12 17.5 SSE 15 28 8 15 1014.7 1013.5 0.0
26/01:30pm 35.6 30.9 3.0 13 17.1 SSE 17 30 9 16 1015.4 1014.2 0.0
26/01:00pm 35.1 29.9 3.6 14 16.6 SSE 20 33 11 18 1016.1 1014.8 0.0
26/12:30pm 35.2 30.4 4.7 15 16.4 SE 19 30 10 16 1016.8 1015.5 0.0
26/12:00pm 34.1 30.3 5.6 17 15.4 SE 15 24 8 13 1017.3 1016.0 0.0
26/11:30am 34.2 30.2 6.5 18 15.2 SE 17 24 9 13 1017.7 1016.4 0.0
26/11:00am 32.6 27.7 5.2 18 14.6 SE 20 32 11 17 1018.1 1016.8 0.0
26/10:30am 31.7 26.8 5.3 19 14.1 ESE 20 28 11 15 1018.5 1017.3 0.0
26/10:00am 30.6 25.2 4.4 19 13.6 ESE 22 30 12 16 1018.5 1017.3 0.0
26/09:30am 29.3 24.1 3.3 19 13.2 ESE 20 28 11 15 1018.4 1017.2 0.0
26/09:00am 27.3 22.8 2.4 20 12.3 SE 15 20 8 11 1018.6 1017.4 0.0
26/08:30am 25.8 22.0 1.8 21 11.6 SE 11 15 6 8 1018.3 1017.0 0.0
26/08:00am 25.4 21.9 1.5 21 11.4 SSE 9 13 5 7 1018.1 1016.8 0.0
26/07:30am 25.2 22.2 2.0 22 11.2 SSE 7 11 4 6 1017.7 1016.4 0.0
26/07:00am 23.1 19.6 1.5 24 10.2 SSE 9 9 5 5 1017.4 1016.1 0.0
26/06:30am 22.2 18.7 1.3 25 9.7 S 9 11 5 6 1017.2 1015.9 0.0
26/06:00am 22.5 19.4 1.5 25 9.8 S 7 9 4 5 1016.9 1015.6 0.0
26/05:30am 23.3 19.5 1.6 24 10.3 SSE 11 13 6 7 1016.5 1015.2 0.0
26/05:00am 24.4 20.6 1.9 23 10.8 SE 11 13 6 7 1016.1 1014.8 0.0
26/04:30am 24.3 20.5 1.9 23 10.7 SSE 11 13 6 7 1015.8 1014.6 0.0
26/04:00am 24.9 21.1 1.7 22 11.1 SSE 11 13 6 7 1015.6 1014.4 0.0
26/03:30am 26.0 22.6 2.0 21 11.6 SE 9 13 5 7 1015.6 1014.4 0.0
26/03:00am 26.8 23.2 2.7 21 11.9 SE 11 17 6 9 1015.3 1014.1 0.0
26/02:30am 27.6 22.8 2.6 20 12.4 SE 17 26 9 14 1015.2 1014.0 0.0
26/02:00am 27.6 22.9 3.3 21 12.2 SSE 17 24 9 13 1015.2 1014.0 0.0
26/01:30am 28.1 23.4 3.0 20 12.6 SSE 17 20 9 11 1015.4 1014.2 0.0
26/01:00am 28.2 24.2 3.1 20 12.6 SSE 13 17 7 9 1015.4 1014.2 0.0
26/12:30am 29.1 24.9 3.9 20 12.9 SSE 15 19 8 10 1015.3 1014.1 0.0
26/12:00am 29.6 25.0 3.6 19 13.3 SSE 17 20 9 11 1015.6 1014.4 0.0
 
Date/Time
EST
Temp
°C
App
Temp
°C
Dew
Point
Rel
Hum
%
Delta-T
°C
Wind Press
QNH
hPa
Press
MSL
hPa
Rain
since 9 am
mm
Dir
 
Spd
km/h
Gust
km/h
Spd
kts
Gust
kts
25/11:30pm 30.1 25.2 4.0 19 13.5 SSE 19 24 10 13 1015.7 1014.5 0.0
25/11:00pm 30.4 25.5 4.2 19 13.6 SSE 19 26 10 14 1015.6 1014.4 0.0
25/10:30pm 30.6 25.8 4.4 19 13.7 S 19 22 10 12 1015.5 1014.3 0.0

Other Formats:

Comma delimited format used in spreadsheet applications
http://www.bom.gov.au/fwo/IDQ60801/IDQ60801.94342.axf

JavaScript Object Notation format (JSON) in row-major order
http://www.bom.gov.au/fwo/IDQ60801/IDQ60801.94342.json